Dan Fighter — OVUE2 — position and weather

sailwx.info

Track history (hours):
 
Tides and Currents Weather Stations Pressure Air Temp Water Temp Dewpoint Dewpoint Depression Visibility Wind Speed Wind Dir Waves Ship Positions

Dan Fighter

Last reported at 2017-Oct-18 13:00 UTC. Time now 2017-Oct-18 13:29 UTC.
Position N 57°16' W 005°45'.

Length 64 m; draft 3.1 m.

Type: Cargo ship. MMSI: 220386978.

Date/timePositionNaut miles runAvg speedWind from/ knotsBaromVisibWave heightAir tempDewpointWater temp
2017-Oct-18 13:00N 57°16' W 005°45'0 0.0
2017-Oct-18 12:30N 57°16' W 005°45'0 0.0
2017-Oct-18 11:58N 57°16' W 005°45'0 0.0
2017-Oct-18 11:29N 57°16' W 005°45'0 0.0
2017-Oct-18 10:59N 57°16' W 005°45'0 0.0
2017-Oct-18 10:26N 57°16' W 005°45'0 0.0
2017-Oct-18 09:59N 57°16' W 005°45'0 0.0
2017-Oct-18 09:30N 57°16' W 005°45'0 0.0
2017-Oct-18 08:59N 57°16' W 005°45'0 0.0
2017-Oct-18 08:31N 57°16' W 005°45'0 0.0
2017-Oct-18 08:00N 57°16' W 005°45'0 0.0
2017-Oct-18 07:29N 57°16' W 005°45'0 0.0
2017-Oct-18 06:58N 57°16' W 005°45'0 0.0
2017-Oct-18 06:30N 57°16' W 005°45'0 0.0
2017-Oct-18 05:59N 57°16' W 005°45'0 0.0
2017-Oct-18 05:30N 57°16' W 005°45'0 0.0
2017-Oct-18 04:58N 57°16' W 005°45'0 0.0
2017-Oct-18 04:30N 57°16' W 005°45'0 0.0
2017-Oct-18 03:58N 57°16' W 005°45'0 0.0
2017-Oct-18 03:29N 57°16' W 005°45'0 0.0
2017-Oct-18 03:00N 57°16' W 005°45'0 0.0
2017-Oct-18 02:30N 57°16' W 005°45'0 0.0
2017-Oct-18 02:00N 57°16' W 005°45'0 0.0
2017-Oct-18 01:28N 57°16' W 005°45'0 0.0
2017-Oct-18 01:00N 57°16' W 005°45'0 0.0
2017-Oct-18 00:30N 57°16' W 005°45'0 0.0
2017-Oct-17 23:59N 57°16' W 005°45'0 0.0
2017-Oct-17 23:30N 57°16' W 005°45'0 0.0
2017-Oct-17 23:00N 57°16' W 005°45'0 0.0
2017-Oct-17 22:30N 57°16' W 005°45'0 0.0
2017-Oct-17 21:59N 57°16' W 005°45'0 0.0
2017-Oct-17 21:29N 57°16' W 005°45'0 0.0
2017-Oct-17 21:00N 57°16' W 005°45'0 0.0
2017-Oct-17 20:29N 57°16' W 005°45'0 0.0
2017-Oct-17 19:58N 57°16' W 005°45'0 0.0
2017-Oct-17 19:28N 57°16' W 005°45'0 0.0
2017-Oct-17 19:00N 57°16' W 005°45'0 0.0
2017-Oct-17 18:28N 57°16' W 005°45'0 0.0
2017-Oct-17 18:00N 57°16' W 005°45'0 0.0
2017-Oct-17 17:28N 57°16' W 005°45'0 0.0
2017-Oct-17 17:00N 57°16' W 005°45'0 0.7
2017-Oct-17 16:29N 57°17' W 005°45'48 6.0
2017-Oct-17 08:33N 56°29' W 005°41'1 7.7
2017-Oct-17 08:21N 56°28' W 005°39'3 7.2
2017-Oct-17 08:00N 56°27' W 005°34'4 8.4
2017-Oct-17 07:31N 56°28' W 005°27'3 0.1
2017-Oct-15 10:20N 56°28' W 005°22'2 6.2
2017-Oct-15 10:00N 56°28' W 005°25'3 5.2
2017-Oct-15 09:30N 56°27' W 005°30'41 2.2
2017-Oct-14 14:44N 57°07' W 005°47'2 8.9
2017-Oct-14 14:30N 57°09' W 005°45'8 8.1
2017-Oct-14 13:34N 57°15' W 005°39'1 9.5
2017-Oct-14 13:29N 57°16' W 005°39'3 6.8
2017-Oct-14 13:00N 57°17' W 005°45'0 0.1
2017-Oct-14 12:28N 57°16' W 005°45'0 0.0
2017-Oct-14 12:01N 57°16' W 005°45'0 0.0
2017-Oct-14 11:28N 57°16' W 005°45'0 0.0
2017-Oct-14 10:58N 57°16' W 005°45'0 0.0
2017-Oct-14 10:25N 57°16' W 005°45'0 0.0
2017-Oct-14 09:58N 57°16' W 005°45'0 0.0
2017-Oct-14 09:28N 57°16' W 005°45'0 0.0
2017-Oct-14 08:58N 57°16' W 005°45'0 0.0
2017-Oct-14 08:28N 57°16' W 005°45'0 0.0
2017-Oct-14 08:01N 57°16' W 005°45'0 0.0
2017-Oct-14 07:31N 57°16' W 005°45'1 1.4
2017-Oct-14 07:00N 57°17' W 005°46'2 4.9
2017-Oct-14 06:30N 57°17' W 005°51'1 2.8
2017-Oct-14 05:59N 57°17' W 005°53'0 0.0
2017-Oct-14 05:29N 57°17' W 005°53'0 0.0
2017-Oct-14 04:59N 57°17' W 005°53'0 0.0
2017-Oct-14 04:29N 57°17' W 005°53'0 0.0
2017-Oct-14 04:00N 57°17' W 005°53'0 0.0
2017-Oct-14 03:29N 57°17' W 005°53'0 0.0
2017-Oct-14 02:59N 57°17' W 005°53'0 0.0
2017-Oct-14 02:29N 57°17' W 005°53'0 0.0
2017-Oct-14 01:59N 57°17' W 005°53'0 0.0
2017-Oct-14 01:29N 57°17' W 005°53'0 0.0
2017-Oct-14 00:59N 57°17' W 005°53'0 0.0
2017-Oct-14 00:29N 57°17' W 005°53'0 0.0
2017-Oct-13 23:59N 57°17' W 005°53'1 1.8
2017-Oct-13 23:30N 57°18' W 005°52'4 7.0
2017-Oct-13 22:59N 57°17' W 005°45'2 4.1
2017-Oct-13 22:30N 57°16' W 005°42'48 6.5
2017-Oct-13 15:00N 56°28' W 005°39'4 7.1
2017-Oct-13 14:29N 56°27' W 005°32'4 8.0
2017-Oct-13 14:00N 56°28' W 005°26'2 0.4
2017-Oct-13 07:50N 56°27' W 005°22'2 5.4
2017-Oct-13 07:30N 56°28' W 005°25'1 2.4
2017-Oct-13 07:00N 56°29' W 005°26'0 0.1
2017-Oct-13 06:23N 56°29' W 005°26'0 0.0
2017-Oct-13 05:59N 56°29' W 005°26'0 0.0
2017-Oct-13 05:26N 56°29' W 005°26'0 0.0
2017-Oct-13 04:59N 56°29' W 005°26'0 0.0
2017-Oct-13 04:29N 56°29' W 005°26'0 0.0
2017-Oct-13 03:56N 56°29' W 005°26'0 0.0
2017-Oct-13 03:29N 56°29' W 005°26'0 0.0
2017-Oct-13 02:59N 56°29' W 005°26'0 0.0
2017-Oct-13 02:26N 56°29' W 005°26'0 0.0
2017-Oct-13 01:56N 56°29' W 005°26'0 0.0
2017-Oct-13 01:29N 56°29' W 005°26'0 0.0
2017-Oct-13 00:53N 56°29' W 005°26'0 0.0
2017-Oct-13 00:29N 56°29' W 005°26'0 0.0
2017-Oct-12 23:56N 56°29' W 005°26'0 0.0
2017-Oct-12 23:29N 56°29' W 005°26'0 0.0
2017-Oct-12 22:56N 56°29' W 005°26'0 0.0
2017-Oct-12 22:29N 56°29' W 005°26'0 0.1
2017-Oct-12 21:56N 56°29' W 005°26'3 7.3
2017-Oct-12 21:31N 56°27' W 005°31'4 7.3
2017-Oct-12 21:00N 56°27' W 005°38'4 7.9
2017-Oct-12 20:31N 56°31' W 005°35'4 8.9
2017-Oct-12 20:01N 56°34' W 005°30'4 8.6
2017-Oct-12 19:30N 56°37' W 005°24'4 8.5
2017-Oct-12 19:00N 56°40' W 005°19'4 8.1
2017-Oct-12 18:30N 56°43' W 005°14'4 8.8
2017-Oct-12 18:00N 56°47' W 005°10'3 0.5
2017-Oct-12 11:29N 56°50' W 005°07'5 9.5
2017-Oct-12 11:00N 56°46' W 005°11'5 9.3
2017-Oct-12 10:31N 56°42' W 005°15'5 9.8
2017-Oct-12 10:00N 56°39' W 005°22'5 9.5
2017-Oct-12 09:30N 56°35' W 005°28'5 9.5
2017-Oct-12 09:01N 56°32' W 005°33'5 9.0
2017-Oct-12 08:30N 56°28' W 005°38'510.2
2017-Oct-12 08:01N 56°23' W 005°39'5 9.5
2017-Oct-12 07:30N 56°18' W 005°41'5 9.4
2017-Oct-12 07:00N 56°14' W 005°45'4 8.7
2017-Oct-12 06:30N 56°10' W 005°46'4 8.6
2017-Oct-12 06:00N 56°07' W 005°40'611.1
2017-Oct-12 05:30N 56°02' W 005°44'510.0
2017-Oct-12 05:00N 55°57' W 005°46'610.5
2017-Oct-12 04:25N 55°51' W 005°47'4 9.7
2017-Oct-12 03:59N 55°47' W 005°48'4 9.3
2017-Oct-12 03:30N 55°42' W 005°50'5 9.3
2017-Oct-12 03:00N 55°38' W 005°51'4 8.9
2017-Oct-12 02:31N 55°33' W 005°51'5 8.4
2017-Oct-12 01:56N 55°28' W 005°52'3 7.4
2017-Oct-12 01:30N 55°25' W 005°53'3 6.0
2017-Oct-12 01:00N 55°22' W 005°52'3 5.3
2017-Oct-12 00:30N 55°20' W 005°51'2 4.1
2017-Oct-12 00:00N 55°18' W 005°51'2 3.6
2017-Oct-11 23:30N 55°16' W 005°50'2 3.9
2017-Oct-11 23:00N 55°14' W 005°49'2 4.1
2017-Oct-11 22:30N 55°12' W 005°48'2 4.9
2017-Oct-11 22:00N 55°10' W 005°47'3 6.9
2017-Oct-11 21:30N 55°06' W 005°46'9 8.3
2017-Oct-11 20:27N 54°58' W 005°42'4 9.1
2017-Oct-11 20:01N 54°54' W 005°39'5 9.9
2017-Oct-11 19:31N 54°49' W 005°39'5 9.9
2017-Oct-11 19:01N 54°44' W 005°40'5 9.4
2017-Oct-11 18:31N 54°41' W 005°46'5 9.2
2017-Oct-11 18:01N 54°38' W 005°52'2 3.3
2017-Oct-11 17:30N 54°37' W 005°54'0 0.0
2017-Oct-11 16:56N 54°37' W 005°54'85 4.3
2017-Oct-10 20:59N 53°42' W 004°03'4 7.5
2017-Oct-10 20:29N 53°40' W 003°58'4 7.8
2017-Oct-10 19:57N 53°38' W 003°52'3 7.9
2017-Oct-10 19:30N 53°36' W 003°47'4 8.0
2017-Oct-10 19:00N 53°34' W 003°40'4 8.5
2017-Oct-10 18:31N 53°33' W 003°33'5 8.9
2017-Oct-10 18:00N 53°33' W 003°26'5 9.1
2017-Oct-10 17:30N 53°32' W 003°18'5 9.3
2017-Oct-10 17:00N 53°32' W 003°11'5 9.5
2017-Oct-10 16:30N 53°29' W 003°04'3 6.5
2017-Oct-10 16:00N 53°26' W 003°01'0 0.2
2017-Oct-10 15:30N 53°27' W 003°01'1 1.3
2017-Oct-10 15:00N 53°26' W 003°00'0 0.0
2017-Oct-10 13:58N 53°26' W 003°00'0 0.0
2017-Oct-10 13:28N 53°26' W 003°00'0 0.0
2017-Oct-10 12:58N 53°26' W 003°00'0 0.0
2017-Oct-10 12:28N 53°26' W 003°00'0 0.0
2017-Oct-10 11:52N 53°26' W 003°00'0 0.0
2017-Oct-10 11:25N 53°26' W 003°00'0 0.0
2017-Oct-10 10:58N 53°26' W 003°00'0 0.0
2017-Oct-10 10:28N 53°26' W 003°00'0 0.0
2017-Oct-10 09:58N 53°26' W 003°00'0 0.0
2017-Oct-10 09:25N 53°26' W 003°00'0 0.0
2017-Oct-10 08:58N 53°26' W 003°00'0 0.0
2017-Oct-10 08:28N 53°26' W 003°00'0 0.0
2017-Oct-10 07:58N 53°26' W 003°00'0 0.0
2017-Oct-10 07:28N 53°26' W 003°00'0 0.0
2017-Oct-10 06:55N 53°26' W 003°00'0 0.0
2017-Oct-10 06:22N 53°26' W 003°00'0 0.0
2017-Oct-10 05:55N 53°26' W 003°00'0 0.0
2017-Oct-10 05:25N 53°26' W 003°00'0 0.0
2017-Oct-10 04:58N 53°26' W 003°00'0 0.0
2017-Oct-10 04:28N 53°26' W 003°00'0 0.0
2017-Oct-10 03:58N 53°26' W 003°00'1 1.4
2017-Oct-10 03:30N 53°27' W 003°01'0 0.3
2017-Oct-10 03:00N 53°26' W 003°01'0 0.4
2017-Oct-10 02:30N 53°26' W 003°01'2 3.3
2017-Oct-10 02:01N 53°28' W 003°03'3 6.1
2017-Oct-10 01:31N 53°30' W 003°06'3 5.5
2017-Oct-10 01:00N 53°32' W 003°10'3 5.9
2017-Oct-10 00:31N 53°31' W 003°14'4 7.3
2017-Oct-10 00:00N 53°32' W 003°21'3 5.7
2017-Oct-09 23:30N 53°34' W 003°21'3 5.8
2017-Oct-09 23:00N 53°37' W 003°22'3 5.9
2017-Oct-09 22:30N 53°40' W 003°22'5 5.9
2017-Oct-09 21:44N 53°45' W 003°23'  
Track history (hours):
 
Tides and Currents Weather Stations Pressure Air Temp Water Temp Dewpoint Dewpoint Depression Visibility Wind Speed Wind Dir Waves Ship Positions

Dan Fighter

Last reported at 2017-Oct-18 13:00 UTC. Time now 2017-Oct-18 13:29 UTC.
Position N 57°16' W 005°45'.

Length 64 m; draft 3.1 m.

Type: Cargo ship. MMSI: 220386978.

Date/timePositionNaut miles runAvg speedWind from/ knotsBaromVisibWave heightAir tempDewpointWater temp
2017-Oct-18 13:00N 57°16' W 005°45'0 0.0
2017-Oct-18 12:30N 57°16' W 005°45'0 0.0
2017-Oct-18 11:58N 57°16' W 005°45'0 0.0
2017-Oct-18 11:29N 57°16' W 005°45'0 0.0
2017-Oct-18 10:59N 57°16' W 005°45'0 0.0
2017-Oct-18 10:26N 57°16' W 005°45'0 0.0
2017-Oct-18 09:59N 57°16' W 005°45'0 0.0
2017-Oct-18 09:30N 57°16' W 005°45'0 0.0
2017-Oct-18 08:59N 57°16' W 005°45'0 0.0
2017-Oct-18 08:31N 57°16' W 005°45'0 0.0
2017-Oct-18 08:00N 57°16' W 005°45'0 0.0
2017-Oct-18 07:29N 57°16' W 005°45'0 0.0
2017-Oct-18 06:58N 57°16' W 005°45'0 0.0
2017-Oct-18 06:30N 57°16' W 005°45'0 0.0
2017-Oct-18 05:59N 57°16' W 005°45'0 0.0
2017-Oct-18 05:30N 57°16' W 005°45'0 0.0
2017-Oct-18 04:58N 57°16' W 005°45'0 0.0
2017-Oct-18 04:30N 57°16' W 005°45'0 0.0
2017-Oct-18 03:58N 57°16' W 005°45'0 0.0
2017-Oct-18 03:29N 57°16' W 005°45'0 0.0
2017-Oct-18 03:00N 57°16' W 005°45'0 0.0
2017-Oct-18 02:30N 57°16' W 005°45'0 0.0
2017-Oct-18 02:00N 57°16' W 005°45'0 0.0
2017-Oct-18 01:28N 57°16' W 005°45'0 0.0
2017-Oct-18 01:00N 57°16' W 005°45'0 0.0
2017-Oct-18 00:30N 57°16' W 005°45'0 0.0
2017-Oct-17 23:59N 57°16' W 005°45'0 0.0
2017-Oct-17 23:30N 57°16' W 005°45'0 0.0
2017-Oct-17 23:00N 57°16' W 005°45'0 0.0
2017-Oct-17 22:30N 57°16' W 005°45'0 0.0
2017-Oct-17 21:59N 57°16' W 005°45'0 0.0
2017-Oct-17 21:29N 57°16' W 005°45'0 0.0
2017-Oct-17 21:00N 57°16' W 005°45'0 0.0
2017-Oct-17 20:29N 57°16' W 005°45'0 0.0
2017-Oct-17 19:58N 57°16' W 005°45'0 0.0
2017-Oct-17 19:28N 57°16' W 005°45'0 0.0
2017-Oct-17 19:00N 57°16' W 005°45'0 0.0
2017-Oct-17 18:28N 57°16' W 005°45'0 0.0
2017-Oct-17 18:00N 57°16' W 005°45'0 0.0
2017-Oct-17 17:28N 57°16' W 005°45'0 0.0
2017-Oct-17 17:00N 57°16' W 005°45'0 0.7
2017-Oct-17 16:29N 57°17' W 005°45'48 6.0
2017-Oct-17 08:33N 56°29' W 005°41'1 7.7
2017-Oct-17 08:21N 56°28' W 005°39'3 7.2
2017-Oct-17 08:00N 56°27' W 005°34'4 8.4
2017-Oct-17 07:31N 56°28' W 005°27'3 0.1
2017-Oct-15 10:20N 56°28' W 005°22'2 6.2
2017-Oct-15 10:00N 56°28' W 005°25'3 5.2
2017-Oct-15 09:30N 56°27' W 005°30'41 2.2
2017-Oct-14 14:44N 57°07' W 005°47'2 8.9
2017-Oct-14 14:30N 57°09' W 005°45'8 8.1
2017-Oct-14 13:34N 57°15' W 005°39'1 9.5
2017-Oct-14 13:29N 57°16' W 005°39'3 6.8
2017-Oct-14 13:00N 57°17' W 005°45'0 0.1
2017-Oct-14 12:28N 57°16' W 005°45'0 0.0
2017-Oct-14 12:01N 57°16' W 005°45'0 0.0
2017-Oct-14 11:28N 57°16' W 005°45'0 0.0
2017-Oct-14 10:58N 57°16' W 005°45'0 0.0
2017-Oct-14 10:25N 57°16' W 005°45'0 0.0
2017-Oct-14 09:58N 57°16' W 005°45'0 0.0
2017-Oct-14 09:28N 57°16' W 005°45'0 0.0
2017-Oct-14 08:58N 57°16' W 005°45'0 0.0
2017-Oct-14 08:28N 57°16' W 005°45'0 0.0
2017-Oct-14 08:01N 57°16' W 005°45'0 0.0
2017-Oct-14 07:31N 57°16' W 005°45'1 1.4
2017-Oct-14 07:00N 57°17' W 005°46'2 4.9
2017-Oct-14 06:30N 57°17' W 005°51'1 2.8
2017-Oct-14 05:59N 57°17' W 005°53'0 0.0
2017-Oct-14 05:29N 57°17' W 005°53'0 0.0
2017-Oct-14 04:59N 57°17' W 005°53'0 0.0
2017-Oct-14 04:29N 57°17' W 005°53'0 0.0
2017-Oct-14 04:00N 57°17' W 005°53'0 0.0
2017-Oct-14 03:29N 57°17' W 005°53'0 0.0
2017-Oct-14 02:59N 57°17' W 005°53'0 0.0
2017-Oct-14 02:29N 57°17' W 005°53'0 0.0
2017-Oct-14 01:59N 57°17' W 005°53'0 0.0
2017-Oct-14 01:29N 57°17' W 005°53'0 0.0
2017-Oct-14 00:59N 57°17' W 005°53'0 0.0
2017-Oct-14 00:29N 57°17' W 005°53'0 0.0
2017-Oct-13 23:59N 57°17' W 005°53'1 1.8
2017-Oct-13 23:30N 57°18' W 005°52'4 7.0
2017-Oct-13 22:59N 57°17' W 005°45'2 4.1
2017-Oct-13 22:30N 57°16' W 005°42'48 6.5
2017-Oct-13 15:00N 56°28' W 005°39'4 7.1
2017-Oct-13 14:29N 56°27' W 005°32'4 8.0
2017-Oct-13 14:00N 56°28' W 005°26'2 0.4
2017-Oct-13 07:50N 56°27' W 005°22'2 5.4
2017-Oct-13 07:30N 56°28' W 005°25'1 2.4
2017-Oct-13 07:00N 56°29' W 005°26'0 0.1
2017-Oct-13 06:23N 56°29' W 005°26'0 0.0
2017-Oct-13 05:59N 56°29' W 005°26'0 0.0
2017-Oct-13 05:26N 56°29' W 005°26'0 0.0
2017-Oct-13 04:59N 56°29' W 005°26'0 0.0
2017-Oct-13 04:29N 56°29' W 005°26'0 0.0
2017-Oct-13 03:56N 56°29' W 005°26'0 0.0
2017-Oct-13 03:29N 56°29' W 005°26'0 0.0
2017-Oct-13 02:59N 56°29' W 005°26'0 0.0
2017-Oct-13 02:26N 56°29' W 005°26'0 0.0
2017-Oct-13 01:56N 56°29' W 005°26'0 0.0
2017-Oct-13 01:29N 56°29' W 005°26'0 0.0
2017-Oct-13 00:53N 56°29' W 005°26'0 0.0
2017-Oct-13 00:29N 56°29' W 005°26'0 0.0
2017-Oct-12 23:56N 56°29' W 005°26'0 0.0
2017-Oct-12 23:29N 56°29' W 005°26'0 0.0
2017-Oct-12 22:56N 56°29' W 005°26'0 0.0
2017-Oct-12 22:29N 56°29' W 005°26'0 0.1
2017-Oct-12 21:56N 56°29' W 005°26'3 7.3
2017-Oct-12 21:31N 56°27' W 005°31'4 7.3
2017-Oct-12 21:00N 56°27' W 005°38'4 7.9
2017-Oct-12 20:31N 56°31' W 005°35'4 8.9
2017-Oct-12 20:01N 56°34' W 005°30'4 8.6
2017-Oct-12 19:30N 56°37' W 005°24'4 8.5
2017-Oct-12 19:00N 56°40' W 005°19'4 8.1
2017-Oct-12 18:30N 56°43' W 005°14'4 8.8
2017-Oct-12 18:00N 56°47' W 005°10'3 0.5
2017-Oct-12 11:29N 56°50' W 005°07'5 9.5
2017-Oct-12 11:00N 56°46' W 005°11'5 9.3
2017-Oct-12 10:31N 56°42' W 005°15'5 9.8
2017-Oct-12 10:00N 56°39' W 005°22'5 9.5
2017-Oct-12 09:30N 56°35' W 005°28'5 9.5
2017-Oct-12 09:01N 56°32' W 005°33'5 9.0
2017-Oct-12 08:30N 56°28' W 005°38'510.2
2017-Oct-12 08:01N 56°23' W 005°39'5 9.5
2017-Oct-12 07:30N 56°18' W 005°41'5 9.4
2017-Oct-12 07:00N 56°14' W 005°45'4 8.7
2017-Oct-12 06:30N 56°10' W 005°46'4 8.6
2017-Oct-12 06:00N 56°07' W 005°40'611.1
2017-Oct-12 05:30N 56°02' W 005°44'510.0
2017-Oct-12 05:00N 55°57' W 005°46'610.5
2017-Oct-12 04:25N 55°51' W 005°47'4 9.7
2017-Oct-12 03:59N 55°47' W 005°48'4 9.3
2017-Oct-12 03:30N 55°42' W 005°50'5 9.3
2017-Oct-12 03:00N 55°38' W 005°51'4 8.9
2017-Oct-12 02:31N 55°33' W 005°51'5 8.4
2017-Oct-12 01:56N 55°28' W 005°52'3 7.4
2017-Oct-12 01:30N 55°25' W 005°53'3 6.0
2017-Oct-12 01:00N 55°22' W 005°52'3 5.3
2017-Oct-12 00:30N 55°20' W 005°51'2 4.1
2017-Oct-12 00:00N 55°18' W 005°51'2 3.6
2017-Oct-11 23:30N 55°16' W 005°50'2 3.9
2017-Oct-11 23:00N 55°14' W 005°49'2 4.1
2017-Oct-11 22:30N 55°12' W 005°48'2 4.9
2017-Oct-11 22:00N 55°10' W 005°47'3 6.9
2017-Oct-11 21:30N 55°06' W 005°46'9 8.3
2017-Oct-11 20:27N 54°58' W 005°42'4 9.1
2017-Oct-11 20:01N 54°54' W 005°39'5 9.9
2017-Oct-11 19:31N 54°49' W 005°39'5 9.9
2017-Oct-11 19:01N 54°44' W 005°40'5 9.4
2017-Oct-11 18:31N 54°41' W 005°46'5 9.2
2017-Oct-11 18:01N 54°38' W 005°52'2 3.3
2017-Oct-11 17:30N 54°37' W 005°54'0 0.0
2017-Oct-11 16:56N 54°37' W 005°54'85 4.3
2017-Oct-10 20:59N 53°42' W 004°03'4 7.5
2017-Oct-10 20:29N 53°40' W 003°58'4 7.8
2017-Oct-10 19:57N 53°38' W 003°52'3 7.9
2017-Oct-10 19:30N 53°36' W 003°47'4 8.0
2017-Oct-10 19:00N 53°34' W 003°40'4 8.5
2017-Oct-10 18:31N 53°33' W 003°33'5 8.9
2017-Oct-10 18:00N 53°33' W 003°26'5 9.1
2017-Oct-10 17:30N 53°32' W 003°18'5 9.3
2017-Oct-10 17:00N 53°32' W 003°11'5 9.5
2017-Oct-10 16:30N 53°29' W 003°04'3 6.5
2017-Oct-10 16:00N 53°26' W 003°01'0 0.2
2017-Oct-10 15:30N 53°27' W 003°01'1 1.3
2017-Oct-10 15:00N 53°26' W 003°00'0 0.0
2017-Oct-10 13:58N 53°26' W 003°00'0 0.0
2017-Oct-10 13:28N 53°26' W 003°00'0 0.0
2017-Oct-10 12:58N 53°26' W 003°00'0 0.0
2017-Oct-10 12:28N 53°26' W 003°00'0 0.0
2017-Oct-10 11:52N 53°26' W 003°00'0 0.0
2017-Oct-10 11:25N 53°26' W 003°00'0 0.0
2017-Oct-10 10:58N 53°26' W 003°00'0 0.0
2017-Oct-10 10:28N 53°26' W 003°00'0 0.0
2017-Oct-10 09:58N 53°26' W 003°00'0 0.0
2017-Oct-10 09:25N 53°26' W 003°00'0 0.0
2017-Oct-10 08:58N 53°26' W 003°00'0 0.0
2017-Oct-10 08:28N 53°26' W 003°00'0 0.0
2017-Oct-10 07:58N 53°26' W 003°00'0 0.0
2017-Oct-10 07:28N 53°26' W 003°00'0 0.0
2017-Oct-10 06:55N 53°26' W 003°00'0 0.0
2017-Oct-10 06:22N 53°26' W 003°00'0 0.0
2017-Oct-10 05:55N 53°26' W 003°00'0 0.0
2017-Oct-10 05:25N 53°26' W 003°00'0 0.0
2017-Oct-10 04:58N 53°26' W 003°00'0 0.0
2017-Oct-10 04:28N 53°26' W 003°00'0 0.0
2017-Oct-10 03:58N 53°26' W 003°00'1 1.4
2017-Oct-10 03:30N 53°27' W 003°01'0 0.3
2017-Oct-10 03:00N 53°26' W 003°01'0 0.4
2017-Oct-10 02:30N 53°26' W 003°01'2 3.3
2017-Oct-10 02:01N 53°28' W 003°03'3 6.1
2017-Oct-10 01:31N 53°30' W 003°06'3 5.5
2017-Oct-10 01:00N 53°32' W 003°10'3 5.9
2017-Oct-10 00:31N 53°31' W 003°14'4 7.3
2017-Oct-10 00:00N 53°32' W 003°21'3 5.7
2017-Oct-09 23:30N 53°34' W 003°21'3 5.8
2017-Oct-09 23:00N 53°37' W 003°22'3 5.9
2017-Oct-09 22:30N 53°40' W 003°22'5 5.9
2017-Oct-09 21:44N 53°45' W 003°23'  

Dump ship's entire track history